createdAt,value
2018-07-11T00:00:12.668Z,70.56
2018-07-11T00:01:12.640Z,70.75
2018-07-11T00:02:12.623Z,70.5
2018-07-11T00:03:12.626Z,70.68
2018-07-11T00:04:12.642Z,70.59
2018-07-11T00:05:12.637Z,70.46
2018-07-11T00:06:12.669Z,70.26
2018-07-11T00:07:12.684Z,70.46
2018-07-11T00:08:14.564Z,70.75
2018-07-11T00:09:19.797Z,70.78
2018-07-11T00:10:12.656Z,70.98
2018-07-11T00:11:12.687Z,71.26
2018-07-11T00:12:12.666Z,71.08
2018-07-11T00:13:12.585Z,70.84
2018-07-11T00:14:12.620Z,70.75
2018-07-11T00:15:12.595Z,70.75
2018-07-11T00:16:12.613Z,70.94
2018-07-11T00:17:12.654Z,71.08
2018-07-11T00:18:12.672Z,70.88
2018-07-11T00:19:12.661Z,70.98
2018-07-11T00:20:12.665Z,70.5
2018-07-11T00:21:12.673Z,70.98
2018-07-11T00:22:12.672Z,70.88
2018-07-11T00:23:12.657Z,71.08
2018-07-11T00:24:12.645Z,70.98
2018-07-11T00:25:12.674Z,70.88
2018-07-11T00:26:12.687Z,70.98
2018-07-11T00:27:12.713Z,70.78
2018-07-11T00:28:12.692Z,70.94
2018-07-11T00:29:12.702Z,70.46
2018-07-11T00:30:12.693Z,70.78
2018-07-11T00:31:12.663Z,70.98
2018-07-11T00:32:12.685Z,71.04
2018-07-11T00:33:12.666Z,70.94
2018-07-11T00:34:12.691Z,70.75
2018-07-11T00:35:12.687Z,70.94
2018-07-11T00:36:12.719Z,70.88
2018-07-11T00:37:12.790Z,70.98
2018-07-11T00:38:12.727Z,71.23
2018-07-11T00:39:12.660Z,70.94
2018-07-11T00:40:12.696Z,71.04
2018-07-11T00:41:12.703Z,70.46
2018-07-11T00:42:12.707Z,71.26
2018-07-11T00:43:12.708Z,70.84
2018-07-11T00:44:12.714Z,70.5
2018-07-11T00:45:12.722Z,70.46
2018-07-11T00:46:12.703Z,71.04
2018-07-11T00:47:12.710Z,70.84
2018-07-11T00:48:12.722Z,70.88
2018-07-11T00:49:12.725Z,70.94
2018-07-11T00:50:12.736Z,70.78
2018-07-11T00:51:12.742Z,70.65
2018-07-11T00:52:12.769Z,70.84
2018-07-11T00:53:12.710Z,70.88
2018-07-11T00:54:12.707Z,70.88
2018-07-11T00:55:12.702Z,70.75
2018-07-11T00:56:12.748Z,70.88
2018-07-11T00:57:12.721Z,71.14
2018-07-11T00:58:12.728Z,70.75
2018-07-11T00:59:12.740Z,70.68
2018-07-11T01:00:12.726Z,70.78
2018-07-11T01:01:12.725Z,70.98
2018-07-11T01:02:12.730Z,70.68
2018-07-11T01:03:12.751Z,70.78
2018-07-11T01:04:12.752Z,70.68
2018-07-11T01:05:12.772Z,70.68
2018-07-11T01:06:12.730Z,70.94
2018-07-11T01:07:12.728Z,70.75
2018-07-11T01:08:12.749Z,70.68
2018-07-11T01:09:12.759Z,70.75
2018-07-11T01:10:12.744Z,70.84
2018-07-11T01:11:12.796Z,70.68
2018-07-11T01:12:12.817Z,71.14
2018-07-11T01:15:20.212Z,70.98
2018-07-11T01:15:31.689Z,70.46
2018-07-11T01:16:31.647Z,71.08
2018-07-11T01:17:31.652Z,71.08
2018-07-11T01:18:31.688Z,71.23
2018-07-11T01:19:31.641Z,70.98
2018-07-11T01:20:31.693Z,71.04
2018-07-11T01:21:31.654Z,71.08
2018-07-11T01:22:31.707Z,70.94
2018-07-11T01:23:31.671Z,70.56
2018-07-11T01:24:31.663Z,70.98
2018-07-11T01:25:31.787Z,71.14
2018-07-11T01:26:31.684Z,70.88
2018-07-11T01:27:31.656Z,70.98
2018-07-11T01:28:31.677Z,70.78
2018-07-11T01:29:31.703Z,70.56
2018-07-11T01:30:31.655Z,71.04
2018-07-11T01:31:31.690Z,70.75
2018-07-11T01:32:31.697Z,70.94
2018-07-11T01:33:31.660Z,70.98
2018-07-11T01:34:31.688Z,70.75
2018-07-11T01:35:31.671Z,70.65
2018-07-11T01:36:31.704Z,70.75
2018-07-11T01:37:31.730Z,70.75
2018-07-11T01:38:31.833Z,70.75
2018-07-11T01:39:31.713Z,70.75
2018-07-11T01:40:31.697Z,70.65
2018-07-11T01:41:31.686Z,70.46
2018-07-11T01:42:31.680Z,70.75
2018-07-11T01:43:31.750Z,70.46
2018-07-11T01:44:31.726Z,70.26
2018-07-11T01:45:31.696Z,70.46
2018-07-11T01:46:31.679Z,70.3
2018-07-11T01:47:31.708Z,70.75
2018-07-11T01:48:31.705Z,70.84
2018-07-11T01:49:31.724Z,70.07
2018-07-11T01:50:31.684Z,70.56
2018-07-11T01:51:31.735Z,70.36
2018-07-11T01:52:31.718Z,70.36
2018-07-11T01:53:31.705Z,70.07
2018-07-11T01:54:31.693Z,70.26
2018-07-11T01:55:31.739Z,69.49
2018-07-11T01:56:31.743Z,70.46
2018-07-11T01:57:31.697Z,70.26
2018-07-11T01:58:31.763Z,70.56
2018-07-11T01:59:31.739Z,70.75
2018-07-11T02:00:31.744Z,70.75
2018-07-11T02:01:31.753Z,70.84
2018-07-11T02:02:31.786Z,70.46
2018-07-11T02:03:31.742Z,70.65
2018-07-11T02:04:31.721Z,70.84
2018-07-11T02:05:31.744Z,70.75
2018-07-11T02:06:32.454Z,70.75
2018-07-11T02:11:49.418Z,70.75
2018-07-11T02:12:01.025Z,70.65
2018-07-11T02:13:00.938Z,70.75
2018-07-11T02:14:00.894Z,70.46
2018-07-11T02:15:01.529Z,70.94
2018-07-11T02:16:00.875Z,70.94
2018-07-11T02:17:00.895Z,70.56
2018-07-11T02:18:00.858Z,70.84
2018-07-11T02:19:00.876Z,70.94
2018-07-11T02:20:00.901Z,71.04
2018-07-11T02:21:00.880Z,70.84
2018-07-11T02:22:00.945Z,70.75
2018-07-11T02:23:00.874Z,70.75
2018-07-11T02:24:00.873Z,70.75
2018-07-11T02:25:00.862Z,71.04
2018-07-11T02:26:00.896Z,70.56
2018-07-11T02:30:28.808Z,70.94
2018-07-11T02:31:28.804Z,70.84
2018-07-11T02:32:28.789Z,70.56
2018-07-11T02:33:28.769Z,70.46
2018-07-11T02:34:28.768Z,70.84
2018-07-11T02:35:29.079Z,70.84
2018-07-11T02:36:28.811Z,70.84
2018-07-11T02:37:28.765Z,71.04
2018-07-11T02:38:28.824Z,71.04
2018-07-11T02:39:28.785Z,70.36
2018-07-11T02:40:28.787Z,70.84
2018-07-11T02:41:28.850Z,70.94
2018-07-11T02:42:28.830Z,70.56
2018-07-11T02:43:28.849Z,70.84
2018-07-11T02:44:28.779Z,70.78
2018-07-11T02:45:28.803Z,71.04
2018-07-11T02:46:28.820Z,70.84
2018-07-11T02:47:28.887Z,70.46
2018-07-11T02:48:28.757Z,70.65
2018-07-11T02:49:28.814Z,70.75
2018-07-11T02:50:28.795Z,70.75
2018-07-11T02:51:28.828Z,70.84
2018-07-11T02:52:28.834Z,70.65
2018-07-11T02:53:28.843Z,70.94
2018-07-11T02:54:28.772Z,71.14
2018-07-11T02:55:28.811Z,71.42
2018-07-11T02:56:28.813Z,70.94
2018-07-11T02:57:28.791Z,71.33
2018-07-11T02:58:28.826Z,71.56
2018-07-11T02:59:28.810Z,71.23
2018-07-11T03:00:28.840Z,71.33
2018-07-11T03:01:28.847Z,71.14
2018-07-11T03:02:28.938Z,71.14
2018-07-11T03:03:28.859Z,71.42
2018-07-11T03:04:28.843Z,71.23
2018-07-11T03:05:28.916Z,71.23
2018-07-11T03:06:28.827Z,71.23
2018-07-11T03:07:28.833Z,71.23
2018-07-11T03:08:28.818Z,70.75
2018-07-11T03:09:28.840Z,71.42
2018-07-11T03:10:29.206Z,71.42
2018-07-11T03:11:28.828Z,71.23
2018-07-11T03:12:28.839Z,71.14
2018-07-11T03:13:28.881Z,71.04
2018-07-11T03:14:28.826Z,71.33
2018-07-11T03:15:28.861Z,71.23
2018-07-11T03:16:28.870Z,71.23
2018-07-11T03:17:28.904Z,71.23
2018-07-11T03:18:28.862Z,71.23
2018-07-11T03:19:28.889Z,71.33
2018-07-11T03:20:28.869Z,71.14
2018-07-11T03:21:28.877Z,70.94
2018-07-11T03:22:28.901Z,70.84
2018-07-11T03:23:28.859Z,71.72
2018-07-11T03:24:28.911Z,71.14
2018-07-11T03:25:28.872Z,71.04
2018-07-11T03:26:28.886Z,71.33
2018-07-11T03:27:28.889Z,71.33
2018-07-11T03:28:28.916Z,71.23
2018-07-11T03:29:28.902Z,71.14
2018-07-11T03:30:28.929Z,71.23
2018-07-11T03:31:28.869Z,71.04
2018-07-11T03:32:28.953Z,71.33
2018-07-11T03:33:28.881Z,71.42
2018-07-11T03:34:28.882Z,71.33
2018-07-11T03:35:28.914Z,71.62
2018-07-11T03:36:28.894Z,71.52
2018-07-11T03:37:28.925Z,72
2018-07-11T03:41:57.575Z,71.52
2018-07-11T03:42:57.582Z,71.42
2018-07-11T03:43:57.488Z,71.42
2018-07-11T03:44:57.472Z,71.23
2018-07-11T03:45:57.518Z,71.72
2018-07-11T03:46:57.509Z,71.91
2018-07-11T03:47:57.537Z,71.91
2018-07-11T03:48:57.547Z,71.52
2018-07-11T03:49:57.570Z,71.33
2018-07-11T03:50:57.506Z,71.72
2018-07-11T03:51:57.514Z,71.72
2018-07-11T03:52:57.555Z,71.81
2018-07-11T03:53:57.549Z,71.81
2018-07-11T03:54:57.512Z,71.81
2018-07-11T03:55:57.537Z,71.52
2018-07-11T03:56:57.551Z,71.72
2018-07-11T03:57:57.551Z,71.52
2018-07-11T03:58:57.530Z,71.23
2018-07-11T03:59:57.542Z,71.14
2018-07-11T04:00:57.548Z,71.81
2018-07-11T04:01:57.570Z,72
2018-07-11T04:02:57.559Z,71.91
2018-07-11T04:07:26.737Z,72.3
2018-07-11T04:08:26.693Z,72
2018-07-11T04:09:26.714Z,72.58
2018-07-11T04:10:26.707Z,72.68
2018-07-11T04:11:26.771Z,72.39
2018-07-11T04:12:26.696Z,72.3
2018-07-11T04:13:26.736Z,72.58
2018-07-11T04:14:26.739Z,72.49
2018-07-11T04:15:26.774Z,72.58
2018-07-11T04:16:26.779Z,72.78
2018-07-11T04:17:26.811Z,72.78
2018-07-11T04:18:26.706Z,72.49
2018-07-11T04:19:26.723Z,72.58
2018-07-11T04:20:26.776Z,72.72
2018-07-11T04:21:26.902Z,72.49
2018-07-11T04:22:26.796Z,72.42
2018-07-11T04:23:26.751Z,72.42
2018-07-11T04:24:26.755Z,72.52
2018-07-11T04:25:26.769Z,72.14
2018-07-11T04:26:26.764Z,72.72
2018-07-11T04:27:26.788Z,72.24
2018-07-11T04:28:26.768Z,72.33
2018-07-11T04:29:26.761Z,71.84
2018-07-11T04:30:26.758Z,71.84
2018-07-11T04:31:26.793Z,71.75
2018-07-11T04:32:26.856Z,71.75
2018-07-11T04:33:26.859Z,71.46
2018-07-11T04:34:26.763Z,71.36
2018-07-11T04:35:26.803Z,71.36
2018-07-11T04:36:26.836Z,71.36
2018-07-11T04:37:26.808Z,71.36
2018-07-11T04:38:26.768Z,71.17
2018-07-11T04:39:26.778Z,71.36
2018-07-11T04:40:26.801Z,71.17
2018-07-11T04:41:27.735Z,70.98
2018-07-11T04:42:26.897Z,71.17
2018-07-11T04:43:26.833Z,71.26
2018-07-11T04:44:26.754Z,71.08
2018-07-11T04:45:26.883Z,71.17
2018-07-11T04:46:26.809Z,71.08
2018-07-11T04:47:26.932Z,71.26
2018-07-11T04:48:26.776Z,71.36
2018-07-11T04:49:26.810Z,71.36
2018-07-11T04:50:26.762Z,71.26
2018-07-11T04:51:26.801Z,71.26
2018-07-11T04:52:26.804Z,71.17
2018-07-11T04:53:26.830Z,71.08
2018-07-11T04:54:26.791Z,71.08
2018-07-11T04:55:26.828Z,71.08
2018-07-11T04:56:26.799Z,71.23
2018-07-11T04:57:26.821Z,71.14
2018-07-11T04:58:26.819Z,71.26
2018-07-11T04:59:26.825Z,71.26
2018-07-11T05:00:26.849Z,71.04
2018-07-11T05:01:26.903Z,71.08
2018-07-11T05:02:26.876Z,71.08
2018-07-11T05:03:26.803Z,71.26
2018-07-11T05:04:26.823Z,71.23
2018-07-11T05:05:26.817Z,71.14
2018-07-11T05:06:26.822Z,71.04
2018-07-11T05:07:26.827Z,71.17
2018-07-11T05:08:26.842Z,71.23
2018-07-11T05:09:26.859Z,71.33
2018-07-11T05:10:26.838Z,71.26
2018-07-11T05:11:26.849Z,71.04
2018-07-11T05:12:26.837Z,71.23
2018-07-11T05:13:26.840Z,71.04
2018-07-11T05:14:26.821Z,71.23
2018-07-11T05:15:26.831Z,71.23
2018-07-11T05:16:26.897Z,71.04
2018-07-11T05:17:26.895Z,71.14
2018-07-11T05:18:26.869Z,71.23
2018-07-11T05:19:26.862Z,71.04
2018-07-11T05:20:26.865Z,71.17
2018-07-11T05:21:26.847Z,71.23
2018-07-11T05:22:26.867Z,71.23
2018-07-11T05:23:26.838Z,71.33
2018-07-11T05:24:26.859Z,71.42
2018-07-11T05:25:26.861Z,71.33
2018-07-11T05:26:26.828Z,71.14
2018-07-11T05:27:26.841Z,71.33
2018-07-11T05:28:26.839Z,71.23
2018-07-11T05:29:26.866Z,71.23
2018-07-11T05:30:26.877Z,71.14
2018-07-11T05:31:26.855Z,71.14
2018-07-11T05:32:26.852Z,71.14
2018-07-11T05:33:26.896Z,71.23
2018-07-11T05:34:26.876Z,71.33
2018-07-11T05:35:26.882Z,71.42
2018-07-11T05:36:26.967Z,71.33
2018-07-11T05:37:26.898Z,71.33
2018-07-11T05:38:26.866Z,71.42
2018-07-11T05:39:26.879Z,71.14
2018-07-11T05:40:26.897Z,71.42
2018-07-11T05:41:29.274Z,71.42
2018-07-11T05:42:26.990Z,71.42
2018-07-11T05:43:26.889Z,71.42
2018-07-11T05:44:26.895Z,71.14
2018-07-11T05:45:26.844Z,71.14
2018-07-11T05:46:26.902Z,71.52
2018-07-11T05:47:27.397Z,71.33
2018-07-11T05:48:26.928Z,71.52
2018-07-11T05:49:26.923Z,71.42
2018-07-11T05:50:26.951Z,71.52
2018-07-11T05:51:26.934Z,71.33
2018-07-11T05:52:26.897Z,71.52
2018-07-11T05:53:26.955Z,71.62
2018-07-11T05:54:26.907Z,71.42
2018-07-11T05:55:26.937Z,71.42
2018-07-11T05:56:26.919Z,71.33
2018-07-11T05:57:26.952Z,71.62
2018-07-11T05:58:26.930Z,71.42
2018-07-11T05:59:26.939Z,71.52
2018-07-11T06:00:26.966Z,71.42
2018-07-11T06:01:26.998Z,71.33
2018-07-11T06:02:26.936Z,71.42
2018-07-11T06:03:26.901Z,71.42
2018-07-11T06:04:26.938Z,71.52
2018-07-11T06:05:27.043Z,71.42
2018-07-11T06:06:27.314Z,71.42
2018-07-11T06:07:26.953Z,71.23
2018-07-11T06:08:26.941Z,71.42
2018-07-11T06:09:26.923Z,71.23
2018-07-11T06:10:26.905Z,71.33
2018-07-11T06:11:26.914Z,71.23
2018-07-11T06:12:26.961Z,71.42
2018-07-11T06:13:27.098Z,71.42
2018-07-11T06:14:26.992Z,71.62
2018-07-11T06:15:26.956Z,71.42
2018-07-11T06:16:28.366Z,71.52
2018-07-11T06:17:26.976Z,71.42
2018-07-11T06:18:26.957Z,71.33
2018-07-11T06:19:26.929Z,71.33
2018-07-11T06:20:26.966Z,71.23
2018-07-11T06:21:27.012Z,71.33
2018-07-11T06:22:26.984Z,71.33
2018-07-11T06:23:26.916Z,71.14
2018-07-11T06:24:26.947Z,71.33
2018-07-11T06:25:26.929Z,71.33
2018-07-11T06:26:26.978Z,71.14
2018-07-11T06:27:26.982Z,71.33
2018-07-11T06:28:26.975Z,71.33
2018-07-11T06:29:26.926Z,71.33
2018-07-11T06:30:27.003Z,71.14
2018-07-11T06:31:26.939Z,71.33
2018-07-11T06:32:26.972Z,71.23
2018-07-11T06:33:27.029Z,71.23
2018-07-11T06:34:27.003Z,71.14
2018-07-11T06:35:26.997Z,71.23
2018-07-11T06:36:26.990Z,71.33
2018-07-11T06:37:27.000Z,71.33
2018-07-11T06:38:26.992Z,71.23
2018-07-11T06:39:27.131Z,71.04
2018-07-11T06:40:26.961Z,71.33
2018-07-11T06:41:27.925Z,71.04
2018-07-11T06:42:26.996Z,71.23
2018-07-11T06:43:26.943Z,71.42
2018-07-11T06:44:27.052Z,71.23
2018-07-11T06:45:26.997Z,71.23
2018-07-11T06:46:27.003Z,71.33
2018-07-11T06:47:26.999Z,71.23
2018-07-11T06:48:27.030Z,71.33
2018-07-11T06:49:26.984Z,71.33
2018-07-11T06:50:26.990Z,71.42
2018-07-11T06:51:27.017Z,71.42
2018-07-11T06:52:27.018Z,71.42
2018-07-11T06:53:27.018Z,71.52
2018-07-11T06:54:27.112Z,71.33
2018-07-11T06:55:27.036Z,71.42
2018-07-11T06:56:27.032Z,71.04
2018-07-11T06:57:27.033Z,70.94
2018-07-11T06:58:27.003Z,70.94
2018-07-11T06:59:27.021Z,70.94
2018-07-11T07:00:27.020Z,71.23
2018-07-11T07:01:27.049Z,71.23
2018-07-11T07:02:27.059Z,70.94
2018-07-11T07:03:27.119Z,71.14
2018-07-11T07:04:27.054Z,71.23
2018-07-11T07:05:27.064Z,70.56
2018-07-11T07:06:27.007Z,71.14
2018-07-11T07:07:27.038Z,70.56
2018-07-11T07:08:27.025Z,70.75
2018-07-11T07:09:27.050Z,70.65
2018-07-11T07:10:27.064Z,70.84
2018-07-11T07:11:27.098Z,70.75
2018-07-11T07:12:27.029Z,71.14
2018-07-11T07:13:27.056Z,70.94
2018-07-11T07:14:27.035Z,71.04
2018-07-11T07:15:27.067Z,70.84
2018-07-11T07:16:27.152Z,70.84
2018-07-11T07:17:27.085Z,70.94
2018-07-11T07:18:27.060Z,71.04
2018-07-11T07:19:27.081Z,70.84
2018-07-11T07:20:27.051Z,71.04
2018-07-11T07:21:27.103Z,71.14
2018-07-11T07:22:27.168Z,70.84
2018-07-11T07:23:27.039Z,70.84
2018-07-11T07:24:27.082Z,71.33
2018-07-11T07:25:27.088Z,70.75
2018-07-11T07:26:27.087Z,70.94
2018-07-11T07:27:27.065Z,71.04
2018-07-11T07:28:27.062Z,70.94
2018-07-11T07:29:27.096Z,70.84
2018-07-11T07:30:27.036Z,70.75
2018-07-11T07:31:27.118Z,71.04
2018-07-11T07:32:27.097Z,71.04
2018-07-11T07:33:27.081Z,70.56
2018-07-11T07:34:27.042Z,70.84
2018-07-11T07:35:27.067Z,71.04
2018-07-11T07:36:27.200Z,70.84
2018-07-11T07:37:27.058Z,70.65
2018-07-11T07:38:27.048Z,70.75
2018-07-11T07:39:27.083Z,71.04
2018-07-11T07:40:27.072Z,70.94
2018-07-11T07:41:27.078Z,71.14
2018-07-11T07:42:27.091Z,70.65
2018-07-11T07:43:27.065Z,70.75
2018-07-11T07:44:27.126Z,70.46
2018-07-11T07:45:27.084Z,70.94
2018-07-11T07:46:27.354Z,70.36
2018-07-11T07:47:27.101Z,70.75
2018-07-11T07:48:27.137Z,70.46
2018-07-11T07:49:27.068Z,71.04
2018-07-11T07:50:27.085Z,71.04
2018-07-11T07:51:27.078Z,71.04
2018-07-11T07:52:27.112Z,71.04
2018-07-11T07:53:27.082Z,70.94
2018-07-11T07:54:27.094Z,71.04
2018-07-11T07:55:27.096Z,70.94
2018-07-11T07:56:27.221Z,70.94
2018-07-11T07:57:27.122Z,71.14
2018-07-11T07:58:27.100Z,70.56
2018-07-11T07:59:27.125Z,71.23
2018-07-11T08:00:27.143Z,71.14
2018-07-11T08:01:27.145Z,71.04
2018-07-11T08:02:27.087Z,71.23
2018-07-11T08:03:27.097Z,70.65
2018-07-11T08:04:27.156Z,70.94
2018-07-11T08:05:27.175Z,70.17
2018-07-11T08:06:27.117Z,70.84
2018-07-11T08:07:27.109Z,70.84
2018-07-11T08:08:27.111Z,70.75
2018-07-11T08:09:27.192Z,70.84
2018-07-11T08:10:27.095Z,70.75
2018-07-11T08:11:27.152Z,70.84
2018-07-11T08:12:27.181Z,70.75
2018-07-11T08:13:27.121Z,70.65
2018-07-11T08:14:27.169Z,70.26
2018-07-11T08:15:27.153Z,70.26
2018-07-11T08:16:27.162Z,70.65
2018-07-11T08:17:27.145Z,70.65
2018-07-11T08:18:27.146Z,70.56
2018-07-11T08:19:27.140Z,70.84
2018-07-11T08:20:27.166Z,70.17
2018-07-11T08:21:27.300Z,70.56
2018-07-11T08:22:27.174Z,70.36
2018-07-11T08:23:27.173Z,70.36
2018-07-11T08:24:27.171Z,70.75
2018-07-11T08:25:27.164Z,70.56
2018-07-11T08:26:27.184Z,70.46
2018-07-11T08:27:27.357Z,70.56
2018-07-11T08:28:27.160Z,70.46
2018-07-11T08:29:27.177Z,70.36
2018-07-11T08:30:27.172Z,70.65
2018-07-11T08:31:27.340Z,70.46
2018-07-11T08:32:27.218Z,70.56
2018-07-11T08:33:27.166Z,70.84
2018-07-11T08:34:27.176Z,70.56
2018-07-11T08:35:27.212Z,70.46
2018-07-11T08:36:27.175Z,70.56
2018-07-11T08:37:27.188Z,70.56
2018-07-11T08:38:27.205Z,70.36
2018-07-11T08:39:27.178Z,70.07
2018-07-11T08:40:27.272Z,70.26
2018-07-11T08:41:27.221Z,70.36
2018-07-11T08:42:27.180Z,70.17
2018-07-11T08:43:27.206Z,70.56
2018-07-11T08:44:27.186Z,70.26
2018-07-11T08:45:27.202Z,70.56
2018-07-11T08:46:27.252Z,70.36
2018-07-11T08:47:43.531Z,70.56
2018-07-11T08:48:43.394Z,70.26
2018-07-11T08:49:43.451Z,70.56
2018-07-11T08:50:43.464Z,70.36
2018-07-11T08:51:43.389Z,70.36
2018-07-11T08:52:43.427Z,70.46
2018-07-11T08:53:43.405Z,70.26
2018-07-11T08:54:43.425Z,70.26
2018-07-11T08:55:43.395Z,70.36
2018-07-11T08:56:43.400Z,70.17
2018-07-11T08:57:43.409Z,70.56
2018-07-11T08:58:43.392Z,70.26
2018-07-11T08:59:43.409Z,70.56
2018-07-11T09:00:43.414Z,70.17
2018-07-11T09:01:43.404Z,70.56
2018-07-11T09:02:43.445Z,70.26
2018-07-11T09:03:43.421Z,70.65
2018-07-11T09:04:43.406Z,70.65
2018-07-11T09:05:43.428Z,70.26
2018-07-11T09:06:43.509Z,70.26
2018-07-11T09:07:43.442Z,70.26
2018-07-11T09:10:23.370Z,70.26
2018-07-11T09:11:01.836Z,70.56
2018-07-11T09:12:01.876Z,70.36
2018-07-11T09:13:01.884Z,70.56
2018-07-11T09:14:01.847Z,70.36
2018-07-11T09:15:01.860Z,70.46
2018-07-11T09:16:01.832Z,70.36
2018-07-11T09:17:01.832Z,70.46
2018-07-11T09:18:01.903Z,70.17
2018-07-11T09:19:01.852Z,70.46
2018-07-11T09:20:01.860Z,70.26
2018-07-11T09:21:01.858Z,70.36
2018-07-11T09:22:01.836Z,70.17
2018-07-11T09:23:01.871Z,70.36
2018-07-11T09:24:02.060Z,70.26
2018-07-11T09:25:01.978Z,70.17
2018-07-11T09:26:01.945Z,70.26
2018-07-11T09:27:01.969Z,70.26
2018-07-11T09:28:02.001Z,70.56
2018-07-11T09:29:02.017Z,70.46
2018-07-11T09:30:02.053Z,70.26
2018-07-11T09:31:01.976Z,70.26
2018-07-11T09:32:01.972Z,70.46
2018-07-11T09:33:01.980Z,70.36
2018-07-11T09:34:02.016Z,70.36
2018-07-11T09:35:02.011Z,70.17
2018-07-11T09:36:02.026Z,70.26
2018-07-11T09:37:01.984Z,69.88
2018-07-11T09:38:02.005Z,69.78
2018-07-11T09:39:02.023Z,70.36
2018-07-11T09:40:02.103Z,70.36
2018-07-11T09:41:02.031Z,70.36
2018-07-11T09:42:02.048Z,70.07
2018-07-11T09:43:02.029Z,70.26
2018-07-11T09:44:01.999Z,70.17
2018-07-11T09:45:02.010Z,70.26
2018-07-11T09:46:02.038Z,70.36
2018-07-11T09:47:02.102Z,70.17
2018-07-11T09:48:02.068Z,70.07
2018-07-11T09:49:01.981Z,70.07
2018-07-11T09:50:02.065Z,69.49
2018-07-11T09:51:02.019Z,69.59
2018-07-11T09:52:02.029Z,70.07
2018-07-11T09:53:02.043Z,69.59
2018-07-11T09:54:02.024Z,69.68
2018-07-11T09:55:02.052Z,69.88
2018-07-11T09:56:02.049Z,69.78
2018-07-11T09:57:02.090Z,69.78
2018-07-11T09:58:02.438Z,69.59
2018-07-11T09:59:02.065Z,69.98
2018-07-11T10:00:02.113Z,69.4
2018-07-11T10:01:02.055Z,69.59
2018-07-11T10:02:02.067Z,69.4
2018-07-11T10:03:02.022Z,69.49
2018-07-11T10:04:02.037Z,69.68
2018-07-11T10:05:02.050Z,69.4
2018-07-11T10:06:02.089Z,69.68
2018-07-11T10:07:02.099Z,69.49
2018-07-11T10:08:02.071Z,69.4
2018-07-11T10:09:02.086Z,69.49
2018-07-11T10:10:02.118Z,69.59
2018-07-11T10:11:02.088Z,69.49
2018-07-11T10:12:02.153Z,69.59
2018-07-11T10:13:02.087Z,69.59
2018-07-11T10:14:02.065Z,69.59
2018-07-11T10:15:02.161Z,69.49
2018-07-11T10:16:02.078Z,69.4
2018-07-11T10:17:02.097Z,69.4
2018-07-11T10:18:02.074Z,69.4
2018-07-11T10:19:02.085Z,69.4
2018-07-11T10:20:02.109Z,69.01
2018-07-11T10:21:02.075Z,69.3
2018-07-11T10:22:02.094Z,69.3
2018-07-11T10:23:02.105Z,68.91
2018-07-11T10:24:02.105Z,69.49
2018-07-11T10:29:19.246Z,69.2
2018-07-11T10:29:31.916Z,68.82
2018-07-11T10:30:31.895Z,69.2
2018-07-11T10:31:32.078Z,69.1
2018-07-11T10:32:31.907Z,69.01
2018-07-11T10:33:31.982Z,69.3
2018-07-11T10:34:31.891Z,69.1
2018-07-11T10:35:31.926Z,69.01
2018-07-11T10:36:31.933Z,69.4
2018-07-11T10:37:31.940Z,69.3
2018-07-11T10:38:31.961Z,68.91
2018-07-11T10:39:31.938Z,69.1
2018-07-11T10:40:31.962Z,69.01
2018-07-11T10:41:32.013Z,68.82
2018-07-11T10:42:31.951Z,69.3
2018-07-11T10:43:31.960Z,69.01
2018-07-11T10:44:31.973Z,69.1
2018-07-11T10:45:31.953Z,69.3
2018-07-11T10:46:32.013Z,69.1
2018-07-11T10:47:32.024Z,69.1
2018-07-11T10:48:31.993Z,69.2
2018-07-11T10:49:31.942Z,69.01
2018-07-11T10:50:32.013Z,68.91
2018-07-11T10:51:31.931Z,69.4
2018-07-11T10:52:31.925Z,69.1
2018-07-11T10:53:31.966Z,69.1
2018-07-11T10:54:31.960Z,68.62
2018-07-11T10:55:31.958Z,68.72
2018-07-11T10:56:31.961Z,69.1
2018-07-11T10:57:32.051Z,69.1
2018-07-11T10:58:31.946Z,69.01
2018-07-11T10:59:31.962Z,68.62
2018-07-11T11:00:36.668Z,68.72
2018-07-11T11:01:32.009Z,68.72
2018-07-11T11:02:31.978Z,68.52
2018-07-11T11:03:33.389Z,68.91
2018-07-11T11:04:31.986Z,69.01
2018-07-11T11:05:31.996Z,68.82
2018-07-11T11:06:32.028Z,69.01
2018-07-11T11:07:32.041Z,69.1
2018-07-11T11:08:32.016Z,68.62
2018-07-11T11:09:31.980Z,68.52
2018-07-11T11:10:31.993Z,68.91
2018-07-11T11:11:32.012Z,68.91
2018-07-11T11:12:31.979Z,68.52
2018-07-11T11:13:32.013Z,69.01
2018-07-11T11:14:32.079Z,68.82
2018-07-11T11:15:31.985Z,68.52
2018-07-11T11:16:32.093Z,68.52
2018-07-11T11:17:32.033Z,69.01
2018-07-11T11:18:32.043Z,68.33
2018-07-11T11:19:32.068Z,68.24
2018-07-11T11:20:32.018Z,68.04
2018-07-11T11:21:32.068Z,68.43
2018-07-11T11:22:32.053Z,68.24
2018-07-11T11:23:31.980Z,69.1
2018-07-11T11:24:32.053Z,68.33
2018-07-11T11:25:33.083Z,68.14
2018-07-11T11:26:32.080Z,68.24
2018-07-11T11:27:32.019Z,68.24
2018-07-11T11:28:32.039Z,68.43
2018-07-11T11:29:32.064Z,68.24
2018-07-11T11:30:32.028Z,68.33
2018-07-11T11:31:32.048Z,68.33
2018-07-11T11:32:32.012Z,68.14
2018-07-11T11:33:32.079Z,68.04
2018-07-11T11:34:32.082Z,68.33
2018-07-11T11:35:32.067Z,68.14
2018-07-11T11:36:32.055Z,68.04
2018-07-11T11:37:32.083Z,67.94
2018-07-11T11:38:32.420Z,68.04
2018-07-11T11:39:32.077Z,68.52
2018-07-11T11:40:32.017Z,67.94
2018-07-11T11:41:32.172Z,68.33
2018-07-11T11:42:32.401Z,67.94
2018-07-11T11:43:32.039Z,68.14
2018-07-11T11:44:32.034Z,67.94
2018-07-11T11:45:31.999Z,68.24
2018-07-11T11:46:32.191Z,68.04
2018-07-11T11:47:32.706Z,68.04
2018-07-11T11:48:32.084Z,67.94
2018-07-11T11:49:32.040Z,68.14
2018-07-11T11:50:32.015Z,67.94
2018-07-11T11:51:32.039Z,68.04
2018-07-11T11:52:32.030Z,67.56
2018-07-11T11:53:32.088Z,67.75
2018-07-11T11:54:32.023Z,67.94
2018-07-11T11:55:32.116Z,67.66
2018-07-11T11:56:32.034Z,67.85
2018-07-11T11:57:32.032Z,67.36
2018-07-11T11:58:32.136Z,67.56
2018-07-11T11:59:32.071Z,67.56
2018-07-11T12:00:32.080Z,67.56
2018-07-11T12:01:32.051Z,67.56
2018-07-11T12:02:32.073Z,67.66
2018-07-11T12:03:32.052Z,67.36
2018-07-11T12:04:32.102Z,67.46
2018-07-11T12:05:32.077Z,67.46
2018-07-11T12:06:32.124Z,67.46
2018-07-11T12:07:52.941Z,67.46
2018-07-11T12:08:46.979Z,67.46
2018-07-11T12:09:35.041Z,67.36
2018-07-11T12:10:46.743Z,67.66
2018-07-11T12:11:32.077Z,67.66
2018-07-11T12:12:32.641Z,67.56
2018-07-11T12:13:32.064Z,67.85
2018-07-11T12:14:32.506Z,67.27
2018-07-11T12:15:32.108Z,67.56
2018-07-11T12:16:32.097Z,67.56
2018-07-11T12:17:32.108Z,67.66
2018-07-11T12:18:32.124Z,67.56
2018-07-11T12:19:32.134Z,67.66
2018-07-11T12:20:32.136Z,67.56
2018-07-11T12:21:32.819Z,67.56
2018-07-11T12:22:32.130Z,67.66
2018-07-11T12:23:32.107Z,67.56
2018-07-11T12:24:32.150Z,67.56
2018-07-11T12:25:32.107Z,67.46
2018-07-11T12:26:32.144Z,67.56
2018-07-11T12:27:32.172Z,67.46
2018-07-11T12:28:32.126Z,67.46
2018-07-11T12:29:32.168Z,67.56
2018-07-11T12:30:32.139Z,67.56
2018-07-11T12:31:32.122Z,67.46
2018-07-11T12:32:32.158Z,67.46
2018-07-11T12:33:32.211Z,67.46
2018-07-11T12:34:32.163Z,67.66
2018-07-11T12:35:32.152Z,67.56
2018-07-11T12:36:32.141Z,67.46
2018-07-11T12:37:32.158Z,67.56
2018-07-11T12:38:32.138Z,67.46
2018-07-11T12:39:32.145Z,67.66
2018-07-11T12:40:32.185Z,67.56
2018-07-11T12:41:32.133Z,67.46
2018-07-11T12:42:32.118Z,67.56
2018-07-11T12:43:32.212Z,67.36
2018-07-11T12:44:32.152Z,67.36
2018-07-11T12:45:32.133Z,67.46
2018-07-11T12:46:32.243Z,66.69
2018-07-11T12:47:32.181Z,67.17
2018-07-11T12:48:32.152Z,67.46
2018-07-11T12:49:32.186Z,67.56
2018-07-11T12:50:32.163Z,67.36
2018-07-11T12:51:32.157Z,67.36
2018-07-11T12:52:32.180Z,67.36
2018-07-11T12:53:32.150Z,67.08
2018-07-11T12:54:32.197Z,67.36
2018-07-11T12:55:32.160Z,67.17
2018-07-11T12:56:32.214Z,67.27
2018-07-11T12:57:32.210Z,67.08
2018-07-11T12:58:32.404Z,67.08
2018-07-11T12:59:32.225Z,67.17
2018-07-11T13:00:32.191Z,67.08
2018-07-11T13:01:32.214Z,67.27
2018-07-11T13:02:32.194Z,67.08
2018-07-11T13:03:32.187Z,67.08
2018-07-11T13:04:32.181Z,66.98
2018-07-11T13:05:32.201Z,66.98
2018-07-11T13:06:32.177Z,67.08
2018-07-11T13:07:32.174Z,66.98
2018-07-11T13:08:32.218Z,67.08
2018-07-11T13:09:32.185Z,66.98
2018-07-11T13:10:32.203Z,67.27
2018-07-11T13:11:32.200Z,67.17
2018-07-11T13:12:32.951Z,67.36
2018-07-11T13:13:32.215Z,67.56
2018-07-11T13:14:32.191Z,67.36